sensor_id;sensor_type;location;lat;lon;timestamp;temperature;humidity
32095;DHT22;18608;53.688;10.748;2022-07-17T00:01:07;12.80;99.90
32095;DHT22;18608;53.688;10.748;2022-07-17T00:03:32;12.80;99.90
32095;DHT22;18608;53.688;10.748;2022-07-17T00:05:58;12.70;99.90
32095;DHT22;18608;53.688;10.748;2022-07-17T00:08:24;12.60;99.90
32095;DHT22;18608;53.688;10.748;2022-07-17T00:10:49;12.70;99.90
32095;DHT22;18608;53.688;10.748;2022-07-17T00:13:15;12.60;99.90
32095;DHT22;18608;53.688;10.748;2022-07-17T00:15:41;12.60;99.90
32095;DHT22;18608;53.688;10.748;2022-07-17T00:18:07;12.60;99.90
32095;DHT22;18608;53.688;10.748;2022-07-17T00:20:33;12.60;99.90
32095;DHT22;18608;53.688;10.748;2022-07-17T00:22:59;12.60;99.90
32095;DHT22;18608;53.688;10.748;2022-07-17T00:25:25;12.70;99.90
32095;DHT22;18608;53.688;10.748;2022-07-17T00:27:51;12.70;99.90
32095;DHT22;18608;53.688;10.748;2022-07-17T00:30:17;12.70;99.90
32095;DHT22;18608;53.688;10.748;2022-07-17T00:32:44;12.70;99.90
32095;DHT22;18608;53.688;10.748;2022-07-17T00:35:09;12.70;99.90
32095;DHT22;18608;53.688;10.748;2022-07-17T00:37:43;13.20;99.90
32095;DHT22;18608;53.688;10.748;2022-07-17T00:40:11;12.70;99.90
32095;DHT22;18608;53.688;10.748;2022-07-17T00:42:41;12.70;99.90
32095;DHT22;18608;53.688;10.748;2022-07-17T00:45:11;12.70;99.90
32095;DHT22;18608;53.688;10.748;2022-07-17T00:48:10;12.80;99.90
32095;DHT22;18608;53.688;10.748;2022-07-17T00:50:38;12.70;99.90
32095;DHT22;18608;53.688;10.748;2022-07-17T00:53:05;12.60;99.90
32095;DHT22;18608;53.688;10.748;2022-07-17T00:55:32;12.60;99.90
32095;DHT22;18608;53.688;10.748;2022-07-17T00:58:00;12.60;99.90
32095;DHT22;18608;53.688;10.748;2022-07-17T01:00:27;12.60;99.90
32095;DHT22;18608;53.688;10.748;2022-07-17T01:02:53;12.50;99.90
32095;DHT22;18608;53.688;10.748;2022-07-17T01:05:21;12.50;99.90
32095;DHT22;18608;53.688;10.748;2022-07-17T01:07:48;12.50;99.90
32095;DHT22;18608;53.688;10.748;2022-07-17T01:10:15;12.60;99.90
32095;DHT22;18608;53.688;10.748;2022-07-17T01:12:43;12.50;99.90
32095;DHT22;18608;53.688;10.748;2022-07-17T01:15:09;12.60;99.90
32095;DHT22;18608;53.688;10.748;2022-07-17T01:17:36;12.60;99.90
32095;DHT22;18608;53.688;10.748;2022-07-17T01:20:04;12.60;99.90
32095;DHT22;18608;53.688;10.748;2022-07-17T01:22:30;12.50;99.90
32095;DHT22;18608;53.688;10.748;2022-07-17T01:24:55;12.40;99.90
32095;DHT22;18608;53.688;10.748;2022-07-17T01:27:21;12.40;99.90
32095;DHT22;18608;53.688;10.748;2022-07-17T01:29:46;12.30;99.90
32095;DHT22;18608;53.688;10.748;2022-07-17T01:32:12;12.20;99.90
32095;DHT22;18608;53.688;10.748;2022-07-17T01:34:38;12.20;99.90
32095;DHT22;18608;53.688;10.748;2022-07-17T01:37:03;12.10;99.90
32095;DHT22;18608;53.688;10.748;2022-07-17T01:39:29;12.00;99.90
32095;DHT22;18608;53.688;10.748;2022-07-17T01:42:13;12.10;99.90
32095;DHT22;18608;53.688;10.748;2022-07-17T01:44:38;12.10;99.90
32095;DHT22;18608;53.688;10.748;2022-07-17T01:47:04;12.20;99.90
32095;DHT22;18608;53.688;10.748;2022-07-17T01:49:30;12.30;99.90
32095;DHT22;18608;53.688;10.748;2022-07-17T01:51:55;12.30;99.90
32095;DHT22;18608;53.688;10.748;2022-07-17T01:54:26;12.50;99.90
32095;DHT22;18608;53.688;10.748;2022-07-17T01:56:52;12.30;99.90
32095;DHT22;18608;53.688;10.748;2022-07-17T01:59:18;12.20;99.90
32095;DHT22;18608;53.688;10.748;2022-07-17T02:01:43;12.10;99.90
32095;DHT22;18608;53.688;10.748;2022-07-17T02:04:09;12.00;99.90
32095;DHT22;18608;53.688;10.748;2022-07-17T02:06:34;12.00;99.90
32095;DHT22;18608;53.688;10.748;2022-07-17T02:09:00;12.00;99.90
32095;DHT22;18608;53.688;10.748;2022-07-17T02:11:26;12.00;99.90
32095;DHT22;18608;53.688;10.748;2022-07-17T02:13:51;12.00;99.90
32095;DHT22;18608;53.688;10.748;2022-07-17T02:16:17;11.90;99.90
32095;DHT22;18608;53.688;10.748;2022-07-17T02:18:42;12.00;99.90
32095;DHT22;18608;53.688;10.748;2022-07-17T02:21:08;12.10;99.90
32095;DHT22;18608;53.688;10.748;2022-07-17T02:23:33;12.10;99.90
32095;DHT22;18608;53.688;10.748;2022-07-17T02:25:59;12.10;99.90
32095;DHT22;18608;53.688;10.748;2022-07-17T02:28:24;12.00;99.90
32095;DHT22;18608;53.688;10.748;2022-07-17T02:30:50;11.90;99.90
32095;DHT22;18608;53.688;10.748;2022-07-17T02:33:16;11.90;99.90
32095;DHT22;18608;53.688;10.748;2022-07-17T02:35:41;11.80;99.90
32095;DHT22;18608;53.688;10.748;2022-07-17T02:38:07;11.40;99.90
32095;DHT22;18608;53.688;10.748;2022-07-17T02:40:32;11.40;99.90
32095;DHT22;18608;53.688;10.748;2022-07-17T02:42:58;11.40;99.90
32095;DHT22;18608;53.688;10.748;2022-07-17T02:45:24;11.40;99.90
32095;DHT22;18608;53.688;10.748;2022-07-17T02:47:51;11.50;99.90
32095;DHT22;18608;53.688;10.748;2022-07-17T02:50:17;11.30;99.90
32095;DHT22;18608;53.688;10.748;2022-07-17T02:52:42;11.20;99.90
32095;DHT22;18608;53.688;10.748;2022-07-17T02:55:10;11.10;99.90
32095;DHT22;18608;53.688;10.748;2022-07-17T02:57:39;11.10;99.90
32095;DHT22;18608;53.688;10.748;2022-07-17T03:00:07;11.10;99.90
32095;DHT22;18608;53.688;10.748;2022-07-17T03:02:33;11.10;99.90
32095;DHT22;18608;53.688;10.748;2022-07-17T03:04:59;11.10;99.90
32095;DHT22;18608;53.688;10.748;2022-07-17T03:07:24;11.10;99.90
32095;DHT22;18608;53.688;10.748;2022-07-17T03:09:50;11.00;99.90
32095;DHT22;18608;53.688;10.748;2022-07-17T03:12:16;11.30;99.90
32095;DHT22;18608;53.688;10.748;2022-07-17T03:14:41;11.30;99.90
32095;DHT22;18608;53.688;10.748;2022-07-17T03:17:07;11.40;99.90
32095;DHT22;18608;53.688;10.748;2022-07-17T03:19:33;11.40;99.90
32095;DHT22;18608;53.688;10.748;2022-07-17T03:21:59;11.30;99.90
32095;DHT22;18608;53.688;10.748;2022-07-17T03:24:24;11.30;99.90
32095;DHT22;18608;53.688;10.748;2022-07-17T03:26:50;11.30;99.90
32095;DHT22;18608;53.688;10.748;2022-07-17T03:29:15;11.30;99.90
32095;DHT22;18608;53.688;10.748;2022-07-17T03:31:45;11.30;99.90
32095;DHT22;18608;53.688;10.748;2022-07-17T03:34:11;11.50;99.90
32095;DHT22;18608;53.688;10.748;2022-07-17T03:36:37;11.70;99.90
32095;DHT22;18608;53.688;10.748;2022-07-17T03:39:03;11.70;99.90
32095;DHT22;18608;53.688;10.748;2022-07-17T03:41:28;11.70;99.90
32095;DHT22;18608;53.688;10.748;2022-07-17T03:43:54;11.70;99.90
32095;DHT22;18608;53.688;10.748;2022-07-17T03:46:20;11.80;99.90
32095;DHT22;18608;53.688;10.748;2022-07-17T03:48:45;11.80;99.90
32095;DHT22;18608;53.688;10.748;2022-07-17T03:51:11;11.80;99.90
32095;DHT22;18608;53.688;10.748;2022-07-17T03:53:37;11.70;99.90
32095;DHT22;18608;53.688;10.748;2022-07-17T03:56:02;11.70;99.90
32095;DHT22;18608;53.688;10.748;2022-07-17T03:58:28;11.80;99.90
32095;DHT22;18608;53.688;10.748;2022-07-17T04:00:54;11.90;99.90
32095;DHT22;18608;53.688;10.748;2022-07-17T04:03:20;11.90;99.90
32095;DHT22;18608;53.688;10.748;2022-07-17T04:05:45;11.90;99.90
32095;DHT22;18608;53.688;10.748;2022-07-17T04:08:11;12.00;99.90
32095;DHT22;18608;53.688;10.748;2022-07-17T04:10:38;12.00;99.90
32095;DHT22;18608;53.688;10.748;2022-07-17T04:13:04;12.10;99.90
32095;DHT22;18608;53.688;10.748;2022-07-17T04:15:29;12.10;99.90
32095;DHT22;18608;53.688;10.748;2022-07-17T04:18:14;12.10;99.90
32095;DHT22;18608;53.688;10.748;2022-07-17T04:20:39;12.10;99.90
32095;DHT22;18608;53.688;10.748;2022-07-17T04:23:05;12.10;99.90
32095;DHT22;18608;53.688;10.748;2022-07-17T04:25:31;12.20;99.90
32095;DHT22;18608;53.688;10.748;2022-07-17T04:27:56;12.30;99.90
32095;DHT22;18608;53.688;10.748;2022-07-17T04:35:14;12.20;99.90
32095;DHT22;18608;53.688;10.748;2022-07-17T04:40:07;12.20;99.90
32095;DHT22;18608;53.688;10.748;2022-07-17T04:42:32;12.30;99.90
32095;DHT22;18608;53.688;10.748;2022-07-17T04:47:24;12.30;99.90
32095;DHT22;18608;53.688;10.748;2022-07-17T04:49:50;12.40;99.90
32095;DHT22;18608;53.688;10.748;2022-07-17T04:52:15;12.50;99.90
32095;DHT22;18608;53.688;10.748;2022-07-17T04:54:41;12.50;99.90
32095;DHT22;18608;53.688;10.748;2022-07-17T04:57:06;12.50;99.90
32095;DHT22;18608;53.688;10.748;2022-07-17T04:59:32;12.70;99.90
32095;DHT22;18608;53.688;10.748;2022-07-17T05:06:50;12.90;99.90
32095;DHT22;18608;53.688;10.748;2022-07-17T05:48:12;13.90;99.90
32095;DHT22;18608;53.688;10.748;2022-07-17T06:10:06;14.30;99.90
32095;DHT22;18608;53.688;10.748;2022-07-17T06:22:18;14.60;99.90
32095;DHT22;18608;53.688;10.748;2022-07-17T07:08:33;15.30;99.90
32095;DHT22;18608;53.688;10.748;2022-07-17T07:11:01;15.40;99.90
32095;DHT22;18608;53.688;10.748;2022-07-17T07:18:18;16.30;99.90
32095;DHT22;18608;53.688;10.748;2022-07-17T07:28:03;16.90;99.90
32095;DHT22;18608;53.688;10.748;2022-07-17T07:42:39;16.50;99.90
32095;DHT22;18608;53.688;10.748;2022-07-17T07:45:05;16.60;99.90
32095;DHT22;18608;53.688;10.748;2022-07-17T08:28:53;18.00;99.90
32095;DHT22;18608;53.688;10.748;2022-07-17T08:45:56;19.00;99.90
32095;DHT22;18608;53.688;10.748;2022-07-17T08:48:26;19.20;99.90
32095;DHT22;18608;53.688;10.748;2022-07-17T08:58:17;18.80;99.90
32095;DHT22;18608;53.688;10.748;2022-07-17T09:05:40;19.70;99.90
32095;DHT22;18608;53.688;10.748;2022-07-17T09:08:08;20.10;99.90
32095;DHT22;18608;53.688;10.748;2022-07-17T09:10:38;20.40;99.90
32095;DHT22;18608;53.688;10.748;2022-07-17T09:15:54;21.30;99.90
32095;DHT22;18608;53.688;10.748;2022-07-17T09:25:44;21.90;99.90
32095;DHT22;18608;53.688;10.748;2022-07-17T09:28:12;21.90;99.90
32095;DHT22;18608;53.688;10.748;2022-07-17T09:30:45;21.90;99.90
32095;DHT22;18608;53.688;10.748;2022-07-17T09:33:19;21.80;99.90
32095;DHT22;18608;53.688;10.748;2022-07-17T09:35:51;21.70;99.90
32095;DHT22;18608;53.688;10.748;2022-07-17T09:38:32;21.70;99.90
32095;DHT22;18608;53.688;10.748;2022-07-17T09:41:16;21.80;99.90
32095;DHT22;18608;53.688;10.748;2022-07-17T09:43:47;22.00;99.90
32095;DHT22;18608;53.688;10.748;2022-07-17T09:46:19;22.10;99.90
32095;DHT22;18608;53.688;10.748;2022-07-17T09:48:52;22.10;99.90
32095;DHT22;18608;53.688;10.748;2022-07-17T09:51:23;21.80;99.90
32095;DHT22;18608;53.688;10.748;2022-07-17T09:53:54;22.00;99.90
32095;DHT22;18608;53.688;10.748;2022-07-17T09:56:22;22.50;99.90
32095;DHT22;18608;53.688;10.748;2022-07-17T09:59:10;22.00;99.90
32095;DHT22;18608;53.688;10.748;2022-07-17T10:01:36;22.10;99.90
32095;DHT22;18608;53.688;10.748;2022-07-17T10:04:02;22.40;99.90
32095;DHT22;18608;53.688;10.748;2022-07-17T10:11:23;21.30;99.90
32095;DHT22;18608;53.688;10.748;2022-07-17T10:13:50;20.70;99.90
32095;DHT22;18608;53.688;10.748;2022-07-17T10:16:27;20.70;99.90
32095;DHT22;18608;53.688;10.748;2022-07-17T10:31:30;22.40;99.90
32095;DHT22;18608;53.688;10.748;2022-07-17T10:34:05;22.70;99.90
32095;DHT22;18608;53.688;10.748;2022-07-17T10:39:14;22.30;99.90
32095;DHT22;18608;53.688;10.748;2022-07-17T10:41:40;22.70;99.90
32095;DHT22;18608;53.688;10.748;2022-07-17T10:49:00;23.30;99.90
32095;DHT22;18608;53.688;10.748;2022-07-17T10:51:29;22.80;99.90
32095;DHT22;18608;53.688;10.748;2022-07-17T10:53:59;22.70;99.90
32095;DHT22;18608;53.688;10.748;2022-07-17T10:56:26;23.10;99.90
32095;DHT22;18608;53.688;10.748;2022-07-17T10:58:52;22.80;99.90
32095;DHT22;18608;53.688;10.748;2022-07-17T11:01:20;22.80;99.90
32095;DHT22;18608;53.688;10.748;2022-07-17T11:03:52;22.80;99.90
32095;DHT22;18608;53.688;10.748;2022-07-17T11:08:49;22.90;99.90
32095;DHT22;18608;53.688;10.748;2022-07-17T11:11:18;23.20;99.90
32095;DHT22;18608;53.688;10.748;2022-07-17T11:21:04;23.90;99.90
32095;DHT22;18608;53.688;10.748;2022-07-17T11:23:33;24.10;99.90
32095;DHT22;18608;53.688;10.748;2022-07-17T11:28:31;23.60;99.90
32095;DHT22;18608;53.688;10.748;2022-07-17T11:30:58;23.10;99.90
32095;DHT22;18608;53.688;10.748;2022-07-17T11:38:27;23.80;99.90
32095;DHT22;18608;53.688;10.748;2022-07-17T11:45:46;23.40;99.90
32095;DHT22;18608;53.688;10.748;2022-07-17T11:53:05;24.10;99.90
32095;DHT22;18608;53.688;10.748;2022-07-17T11:55:38;24.20;99.90
32095;DHT22;18608;53.688;10.748;2022-07-17T12:03:02;24.10;99.90
32095;DHT22;18608;53.688;10.748;2022-07-17T12:05:30;24.00;99.90
32095;DHT22;18608;53.688;10.748;2022-07-17T12:10:23;24.10;99.90
32095;DHT22;18608;53.688;10.748;2022-07-17T12:15:39;24.00;99.90
32095;DHT22;18608;53.688;10.748;2022-07-17T12:18:06;24.10;99.90
32095;DHT22;18608;53.688;10.748;2022-07-17T12:20:46;24.00;99.90
32095;DHT22;18608;53.688;10.748;2022-07-17T12:40:40;23.80;99.90
32095;DHT22;18608;53.688;10.748;2022-07-17T13:00:09;23.50;99.90
32095;DHT22;18608;53.688;10.748;2022-07-17T13:17:13;23.70;99.90
32095;DHT22;18608;53.688;10.748;2022-07-17T13:31:54;24.20;99.90
32095;DHT22;18608;53.688;10.748;2022-07-17T13:41:38;23.90;99.90
32095;DHT22;18608;53.688;10.748;2022-07-17T13:44:05;23.60;99.90
32095;DHT22;18608;53.688;10.748;2022-07-17T15:21:30;23.70;99.90
32095;DHT22;18608;53.688;10.748;2022-07-17T15:33:39;23.30;99.90
32095;DHT22;18608;53.688;10.748;2022-07-17T15:36:09;23.80;99.90
32095;DHT22;18608;53.688;10.748;2022-07-17T15:38:36;23.70;99.90
32095;DHT22;18608;53.688;10.748;2022-07-17T16:15:05;23.50;99.90
32095;DHT22;18608;53.688;10.748;2022-07-17T16:49:09;22.70;99.90
32095;DHT22;18608;53.688;10.748;2022-07-17T17:11:04;22.30;99.90
32095;DHT22;18608;53.688;10.748;2022-07-17T17:13:30;21.90;99.90
32095;DHT22;18608;53.688;10.748;2022-07-17T17:15:55;21.80;99.90
32095;DHT22;18608;53.688;10.748;2022-07-17T17:18:21;21.70;99.90
32095;DHT22;18608;53.688;10.748;2022-07-17T17:20:47;21.70;99.90
32095;DHT22;18608;53.688;10.748;2022-07-17T17:23:12;21.70;99.90
32095;DHT22;18608;53.688;10.748;2022-07-17T17:25:38;21.50;99.90
32095;DHT22;18608;53.688;10.748;2022-07-17T17:28:03;21.50;99.90
32095;DHT22;18608;53.688;10.748;2022-07-17T17:30:29;21.40;99.90
32095;DHT22;18608;53.688;10.748;2022-07-17T17:32:55;21.40;99.90
32095;DHT22;18608;53.688;10.748;2022-07-17T17:35:20;21.40;99.90
32095;DHT22;18608;53.688;10.748;2022-07-17T17:37:46;21.50;99.90
32095;DHT22;18608;53.688;10.748;2022-07-17T17:40:11;21.50;99.90
32095;DHT22;18608;53.688;10.748;2022-07-17T17:42:37;21.70;99.90
32095;DHT22;18608;53.688;10.748;2022-07-17T17:45:04;21.60;99.90
32095;DHT22;18608;53.688;10.748;2022-07-17T17:47:29;21.50;99.90
32095;DHT22;18608;53.688;10.748;2022-07-17T17:49:55;21.40;99.90
32095;DHT22;18608;53.688;10.748;2022-07-17T17:52:20;21.40;99.90
32095;DHT22;18608;53.688;10.748;2022-07-17T17:54:46;21.30;99.90
32095;DHT22;18608;53.688;10.748;2022-07-17T17:57:11;21.20;99.90
32095;DHT22;18608;53.688;10.748;2022-07-17T17:59:37;21.20;99.90
32095;DHT22;18608;53.688;10.748;2022-07-17T18:02:03;21.30;99.90
32095;DHT22;18608;53.688;10.748;2022-07-17T18:04:31;21.20;99.90
32095;DHT22;18608;53.688;10.748;2022-07-17T18:06:57;21.30;99.90
32095;DHT22;18608;53.688;10.748;2022-07-17T18:09:22;21.30;99.90
32095;DHT22;18608;53.688;10.748;2022-07-17T18:11:48;21.30;99.90
32095;DHT22;18608;53.688;10.748;2022-07-17T18:14:14;21.20;99.90
32095;DHT22;18608;53.688;10.748;2022-07-17T18:16:39;21.10;99.90
32095;DHT22;18608;53.688;10.748;2022-07-17T18:19:05;21.30;99.90
32095;DHT22;18608;53.688;10.748;2022-07-17T18:21:31;21.10;99.90
32095;DHT22;18608;53.688;10.748;2022-07-17T18:23:57;20.90;99.90
32095;DHT22;18608;53.688;10.748;2022-07-17T18:26:23;20.80;99.90
32095;DHT22;18608;53.688;10.748;2022-07-17T18:28:48;20.70;99.90
32095;DHT22;18608;53.688;10.748;2022-07-17T18:31:14;20.70;99.90
32095;DHT22;18608;53.688;10.748;2022-07-17T18:33:39;20.60;99.90
32095;DHT22;18608;53.688;10.748;2022-07-17T18:36:05;20.50;99.90
32095;DHT22;18608;53.688;10.748;2022-07-17T18:38:31;20.40;99.90
32095;DHT22;18608;53.688;10.748;2022-07-17T18:40:57;20.30;99.90
32095;DHT22;18608;53.688;10.748;2022-07-17T18:43:23;20.20;99.90
32095;DHT22;18608;53.688;10.748;2022-07-17T18:45:49;20.10;99.90
32095;DHT22;18608;53.688;10.748;2022-07-17T18:48:15;20.00;99.90
32095;DHT22;18608;53.688;10.748;2022-07-17T18:50:41;20.00;99.90
32095;DHT22;18608;53.688;10.748;2022-07-17T18:53:07;19.90;99.90
32095;DHT22;18608;53.688;10.748;2022-07-17T18:55:32;19.70;99.90
32095;DHT22;18608;53.688;10.748;2022-07-17T18:57:58;19.60;99.90
32095;DHT22;18608;53.688;10.748;2022-07-17T19:00:25;19.50;99.90
32095;DHT22;18608;53.688;10.748;2022-07-17T19:02:51;19.50;99.90
32095;DHT22;18608;53.688;10.748;2022-07-17T19:05:17;19.30;99.90
32095;DHT22;18608;53.688;10.748;2022-07-17T19:07:42;19.20;99.90
32095;DHT22;18608;53.688;10.748;2022-07-17T19:10:09;19.20;99.90
32095;DHT22;18608;53.688;10.748;2022-07-17T19:12:34;19.10;99.90
32095;DHT22;18608;53.688;10.748;2022-07-17T19:15:01;19.00;99.90
32095;DHT22;18608;53.688;10.748;2022-07-17T19:17:26;18.90;99.90
32095;DHT22;18608;53.688;10.748;2022-07-17T19:19:52;18.80;99.90
32095;DHT22;18608;53.688;10.748;2022-07-17T19:22:18;18.80;99.90
32095;DHT22;18608;53.688;10.748;2022-07-17T19:24:44;18.80;99.90
32095;DHT22;18608;53.688;10.748;2022-07-17T19:27:10;18.90;99.90
32095;DHT22;18608;53.688;10.748;2022-07-17T19:29:35;18.80;99.90
32095;DHT22;18608;53.688;10.748;2022-07-17T19:32:01;18.80;99.90
32095;DHT22;18608;53.688;10.748;2022-07-17T19:34:27;18.70;99.90
32095;DHT22;18608;53.688;10.748;2022-07-17T19:36:52;18.60;99.90
32095;DHT22;18608;53.688;10.748;2022-07-17T19:39:18;18.60;99.90
32095;DHT22;18608;53.688;10.748;2022-07-17T19:41:43;18.60;99.90
32095;DHT22;18608;53.688;10.748;2022-07-17T19:44:09;18.70;99.90
32095;DHT22;18608;53.688;10.748;2022-07-17T19:46:35;18.60;99.90
32095;DHT22;18608;53.688;10.748;2022-07-17T19:49:00;18.80;99.90
32095;DHT22;18608;53.688;10.748;2022-07-17T19:51:27;18.80;99.90
32095;DHT22;18608;53.688;10.748;2022-07-17T19:53:53;18.80;99.90
32095;DHT22;18608;53.688;10.748;2022-07-17T19:56:19;18.70;99.90
32095;DHT22;18608;53.688;10.748;2022-07-17T19:58:49;18.60;99.90
32095;DHT22;18608;53.688;10.748;2022-07-17T20:01:16;18.60;99.90
32095;DHT22;18608;53.688;10.748;2022-07-17T20:03:41;18.50;99.90
32095;DHT22;18608;53.688;10.748;2022-07-17T20:06:07;18.50;99.90
32095;DHT22;18608;53.688;10.748;2022-07-17T20:08:34;18.40;99.90
32095;DHT22;18608;53.688;10.748;2022-07-17T20:11:00;18.30;99.90
32095;DHT22;18608;53.688;10.748;2022-07-17T20:13:26;18.20;99.90
32095;DHT22;18608;53.688;10.748;2022-07-17T20:15:52;18.20;99.90
32095;DHT22;18608;53.688;10.748;2022-07-17T20:18:18;18.30;99.90
32095;DHT22;18608;53.688;10.748;2022-07-17T20:20:44;18.30;99.90
32095;DHT22;18608;53.688;10.748;2022-07-17T20:23:12;18.20;99.90
32095;DHT22;18608;53.688;10.748;2022-07-17T20:25:38;18.10;99.90
32095;DHT22;18608;53.688;10.748;2022-07-17T20:28:04;18.00;99.90
32095;DHT22;18608;53.688;10.748;2022-07-17T20:30:30;18.00;99.90
32095;DHT22;18608;53.688;10.748;2022-07-17T20:32:55;17.90;99.90
32095;DHT22;18608;53.688;10.748;2022-07-17T20:35:21;17.90;99.90
32095;DHT22;18608;53.688;10.748;2022-07-17T20:37:47;17.90;99.90
32095;DHT22;18608;53.688;10.748;2022-07-17T20:40:13;17.80;99.90
32095;DHT22;18608;53.688;10.748;2022-07-17T20:42:43;17.80;99.90
32095;DHT22;18608;53.688;10.748;2022-07-17T20:45:08;17.80;99.90
32095;DHT22;18608;53.688;10.748;2022-07-17T20:47:34;17.70;99.90
32095;DHT22;18608;53.688;10.748;2022-07-17T20:50:00;17.80;99.90
32095;DHT22;18608;53.688;10.748;2022-07-17T20:52:26;17.90;99.90
32095;DHT22;18608;53.688;10.748;2022-07-17T20:54:51;17.90;99.90
32095;DHT22;18608;53.688;10.748;2022-07-17T20:57:17;17.90;99.90
32095;DHT22;18608;53.688;10.748;2022-07-17T20:59:42;17.80;99.90
32095;DHT22;18608;53.688;10.748;2022-07-17T21:02:08;17.70;99.90
32095;DHT22;18608;53.688;10.748;2022-07-17T21:04:33;17.80;99.90
32095;DHT22;18608;53.688;10.748;2022-07-17T21:06:59;17.80;99.90
32095;DHT22;18608;53.688;10.748;2022-07-17T21:09:26;17.70;99.90
32095;DHT22;18608;53.688;10.748;2022-07-17T21:11:52;17.70;99.90
32095;DHT22;18608;53.688;10.748;2022-07-17T21:14:18;17.80;99.90
32095;DHT22;18608;53.688;10.748;2022-07-17T21:16:43;17.80;99.90
32095;DHT22;18608;53.688;10.748;2022-07-17T21:19:09;17.80;99.90
32095;DHT22;18608;53.688;10.748;2022-07-17T21:21:35;17.80;99.90
32095;DHT22;18608;53.688;10.748;2022-07-17T21:24:01;17.70;99.90
32095;DHT22;18608;53.688;10.748;2022-07-17T21:26:27;17.70;99.90
32095;DHT22;18608;53.688;10.748;2022-07-17T21:28:52;17.70;99.90
32095;DHT22;18608;53.688;10.748;2022-07-17T21:31:18;17.80;99.90
32095;DHT22;18608;53.688;10.748;2022-07-17T21:33:44;17.70;99.90
32095;DHT22;18608;53.688;10.748;2022-07-17T21:36:09;17.70;99.90
32095;DHT22;18608;53.688;10.748;2022-07-17T21:38:36;17.60;99.90
32095;DHT22;18608;53.688;10.748;2022-07-17T21:41:02;17.70;99.90
32095;DHT22;18608;53.688;10.748;2022-07-17T21:43:29;17.60;99.90
32095;DHT22;18608;53.688;10.748;2022-07-17T21:45:55;17.60;99.90
32095;DHT22;18608;53.688;10.748;2022-07-17T21:48:21;17.70;99.90
32095;DHT22;18608;53.688;10.748;2022-07-17T21:50:46;17.70;99.90
32095;DHT22;18608;53.688;10.748;2022-07-17T21:53:12;17.70;99.90
32095;DHT22;18608;53.688;10.748;2022-07-17T21:55:38;17.80;99.90
32095;DHT22;18608;53.688;10.748;2022-07-17T21:58:03;17.70;99.90
32095;DHT22;18608;53.688;10.748;2022-07-17T22:00:30;17.80;99.90
32095;DHT22;18608;53.688;10.748;2022-07-17T22:02:56;17.70;99.90
32095;DHT22;18608;53.688;10.748;2022-07-17T22:05:21;17.70;99.90
32095;DHT22;18608;53.688;10.748;2022-07-17T22:07:47;17.60;99.90
32095;DHT22;18608;53.688;10.748;2022-07-17T22:10:13;17.50;99.90
32095;DHT22;18608;53.688;10.748;2022-07-17T22:12:39;17.30;99.90
32095;DHT22;18608;53.688;10.748;2022-07-17T22:15:06;17.20;99.90
32095;DHT22;18608;53.688;10.748;2022-07-17T22:17:33;17.20;99.90
32095;DHT22;18608;53.688;10.748;2022-07-17T22:19:59;17.10;99.90
32095;DHT22;18608;53.688;10.748;2022-07-17T22:22:25;17.00;99.90
32095;DHT22;18608;53.688;10.748;2022-07-17T22:24:51;17.00;99.90
32095;DHT22;18608;53.688;10.748;2022-07-17T22:27:16;17.10;99.90
32095;DHT22;18608;53.688;10.748;2022-07-17T22:29:43;17.00;99.90
32095;DHT22;18608;53.688;10.748;2022-07-17T22:32:10;16.90;99.90
32095;DHT22;18608;53.688;10.748;2022-07-17T22:34:35;16.90;99.90
32095;DHT22;18608;53.688;10.748;2022-07-17T22:37:03;16.90;99.90
32095;DHT22;18608;53.688;10.748;2022-07-17T22:39:29;16.90;99.90
32095;DHT22;18608;53.688;10.748;2022-07-17T22:41:55;16.80;99.90
32095;DHT22;18608;53.688;10.748;2022-07-17T22:44:20;16.80;99.90
32095;DHT22;18608;53.688;10.748;2022-07-17T22:46:46;16.80;99.90
32095;DHT22;18608;53.688;10.748;2022-07-17T22:49:11;16.60;99.90
32095;DHT22;18608;53.688;10.748;2022-07-17T22:51:37;16.50;99.90
32095;DHT22;18608;53.688;10.748;2022-07-17T22:54:03;16.50;99.90
32095;DHT22;18608;53.688;10.748;2022-07-17T22:56:29;16.60;99.90
32095;DHT22;18608;53.688;10.748;2022-07-17T22:58:57;15.90;99.90
32095;DHT22;18608;53.688;10.748;2022-07-17T23:01:23;16.40;99.90
32095;DHT22;18608;53.688;10.748;2022-07-17T23:03:48;16.50;99.90
32095;DHT22;18608;53.688;10.748;2022-07-17T23:06:14;16.50;99.90
32095;DHT22;18608;53.688;10.748;2022-07-17T23:08:45;16.30;99.90
32095;DHT22;18608;53.688;10.748;2022-07-17T23:11:12;16.40;99.90
32095;DHT22;18608;53.688;10.748;2022-07-17T23:13:38;16.40;99.90
32095;DHT22;18608;53.688;10.748;2022-07-17T23:16:04;16.40;99.90
32095;DHT22;18608;53.688;10.748;2022-07-17T23:18:31;16.40;99.90
32095;DHT22;18608;53.688;10.748;2022-07-17T23:20:56;16.30;99.90
32095;DHT22;18608;53.688;10.748;2022-07-17T23:23:22;16.40;99.90
32095;DHT22;18608;53.688;10.748;2022-07-17T23:25:47;16.10;99.90
32095;DHT22;18608;53.688;10.748;2022-07-17T23:28:13;16.00;99.90
32095;DHT22;18608;53.688;10.748;2022-07-17T23:30:39;16.00;99.90
32095;DHT22;18608;53.688;10.748;2022-07-17T23:33:05;15.80;99.90
32095;DHT22;18608;53.688;10.748;2022-07-17T23:35:31;15.90;99.90
32095;DHT22;18608;53.688;10.748;2022-07-17T23:37:58;15.90;99.90
32095;DHT22;18608;53.688;10.748;2022-07-17T23:42:50;15.80;99.90
32095;DHT22;18608;53.688;10.748;2022-07-17T23:45:15;15.80;99.90
32095;DHT22;18608;53.688;10.748;2022-07-17T23:47:41;15.70;99.90
32095;DHT22;18608;53.688;10.748;2022-07-17T23:50:07;15.60;99.90
32095;DHT22;18608;53.688;10.748;2022-07-17T23:52:33;15.40;99.90
32095;DHT22;18608;53.688;10.748;2022-07-17T23:55:00;15.40;99.90
32095;DHT22;18608;53.688;10.748;2022-07-17T23:57:25;15.30;99.90
32095;DHT22;18608;53.688;10.748;2022-07-17T23:59:51;15.40;99.90
